Time;durP1;ratioP1;P1;durP2;ratioP2;P2;SDS_P1;SDS_P2;PMS_P1;PMS_P2;Temp;Humidity;BMP_temperature;BMP_pressure;BME280_temperature;BME280_humidity;BME280_pressure;Samples;Min_cycle;Max_cycle;Signal;HPM_P1;HPM_P2
2023/07/08 00:01:19;;;;;;;7.10;5.30;;;22.60;59.20;;;;;;5052893;28;20185;-68
2023/07/08 00:03:45;;;;;;;6.85;5.13;;;22.50;59.40;;;;;;5051509;28;20216;-65
2023/07/08 00:06:22;;;;;;;7.07;4.82;;;22.50;59.40;;;;;;5036158;28;20181;-66
2023/07/08 00:08:51;;;;;;;5.88;4.53;;;22.40;60.70;;;;;;5039223;28;20188;-66
2023/07/08 00:11:17;;;;;;;6.63;4.95;;;22.40;59.80;;;;;;5036253;28;20259;-65
2023/07/08 00:13:47;;;;;;;5.80;4.68;;;22.30;60.00;;;;;;5053835;28;20219;-66
2023/07/08 00:16:21;;;;;;;5.78;4.82;;;22.30;60.80;;;;;;5048442;28;20200;-65
2023/07/08 00:18:50;;;;;;;7.20;4.72;;;22.20;61.20;;;;;;5036589;28;20173;-64
2023/07/08 00:21:17;;;;;;;6.43;4.70;;;22.20;60.90;;;;;;5037471;28;20178;-65
2023/07/08 00:23:50;;;;;;;5.80;4.55;;;22.20;61.30;;;;;;5036170;28;20246;-66
2023/07/08 00:26:27;;;;;;;6.47;4.63;;;22.10;62.50;;;;;;5034289;28;20272;-65
2023/07/08 00:28:55;;;;;;;6.78;5.00;;;22.10;62.10;;;;;;5035825;28;20181;-65
2023/07/08 00:31:23;;;;;;;5.78;4.57;;;22.10;62.00;;;;;;5042271;28;20198;-66
2023/07/08 00:33:50;;;;;;;5.70;4.38;;;22.00;62.00;;;;;;5050023;28;20174;-66
2023/07/08 00:36:17;;;;;;;6.57;4.95;;;22.00;62.30;;;;;;5053282;28;20352;-66
2023/07/08 00:38:48;;;;;;;7.57;5.13;;;22.00;62.50;;;;;;5036589;28;20230;-66
2023/07/08 00:41:22;;;;;;;6.05;4.65;;;22.00;62.80;;;;;;5049514;28;20185;-65
2023/07/08 00:43:49;;;;;;;7.53;4.97;;;21.90;63.40;;;;;;5034673;28;20258;-65
2023/07/08 00:46:27;;;;;;;5.72;4.40;;;21.90;63.00;;;;;;5038182;28;20185;-66
2023/07/08 00:49:34;;;;;;;7.30;4.90;;;21.90;63.80;;;;;;5037599;28;20207;-64
2023/07/08 00:52:29;;;;;;;6.10;4.70;;;21.90;65.30;;;;;;5009331;28;20199;-65
2023/07/08 00:55:05;;;;;;;5.30;4.40;;;21.90;65.30;;;;;;5014897;28;20209;-66
2023/07/08 00:57:36;;;;;;;5.53;4.43;;;21.90;64.40;;;;;;5050900;28;20193;-66
2023/07/08 01:00:08;;;;;;;7.15;4.47;;;21.80;65.20;;;;;;5028561;28;20185;-67
2023/07/08 01:02:42;;;;;;;6.93;4.85;;;21.80;64.30;;;;;;5052466;28;20177;-65
2023/07/08 01:05:14;;;;;;;5.72;4.30;;;21.80;65.30;;;;;;5054769;28;20189;-65
2023/07/08 01:07:46;;;;;;;8.30;4.93;;;21.80;64.90;;;;;;5051161;28;20198;-66
2023/07/08 01:10:22;;;;;;;5.75;4.50;;;21.70;65.80;;;;;;5037409;28;20197;-67
2023/07/08 01:12:54;;;;;;;6.80;4.65;;;21.70;66.40;;;;;;5034559;28;20173;-65
2023/07/08 01:15:23;;;;;;;5.60;4.47;;;21.70;66.50;;;;;;5028745;28;20177;-67
2023/07/08 01:17:53;;;;;;;6.97;4.82;;;21.70;66.40;;;;;;5034407;28;20200;-67
2023/07/08 01:20:21;;;;;;;6.30;4.63;;;21.70;67.20;;;;;;5034020;28;20177;-66
2023/07/08 01:22:49;;;;;;;6.93;4.75;;;21.70;66.90;;;;;;5036743;28;20195;-66
2023/07/08 01:25:15;;;;;;;7.63;4.72;;;21.70;67.30;;;;;;5037336;28;20243;-67
2023/07/08 01:27:51;;;;;;;6.95;4.88;;;21.60;67.40;;;;;;5037336;28;20173;-65
2023/07/08 01:30:19;;;;;;;6.40;4.80;;;21.60;68.00;;;;;;5036808;28;20228;-65
2023/07/08 01:32:51;;;;;;;7.53;4.97;;;21.60;68.50;;;;;;5033606;28;20187;-64
2023/07/08 01:35:17;;;;;;;6.95;4.55;;;21.60;69.20;;;;;;5046872;28;20208;-64
2023/07/08 01:37:52;;;;;;;5.55;4.50;;;21.60;68.80;;;;;;5036023;28;20204;-67
2023/07/08 01:40:31;;;;;;;6.57;4.65;;;21.50;69.70;;;;;;5036943;28;20203;-66
2023/07/08 01:43:00;;;;;;;7.55;4.68;;;21.50;70.80;;;;;;5053099;28;20173;-65
2023/07/08 01:45:30;;;;;;;6.72;4.75;;;21.50;70.10;;;;;;5036206;28;20231;-66
2023/07/08 01:48:12;;;;;;;6.95;4.57;;;21.50;69.90;;;;;;5035229;28;20181;-65
2023/07/08 01:50:49;;;;;;;6.95;5.15;;;21.40;71.40;;;;;;5028803;28;20208;-66
2023/07/08 01:53:21;;;;;;;5.82;4.18;;;21.40;71.20;;;;;;5035352;28;20182;-64
2023/07/08 01:55:47;;;;;;;6.03;4.65;;;21.40;70.40;;;;;;5038369;28;20188;-66
2023/07/08 01:58:14;;;;;;;7.20;4.72;;;21.30;70.30;;;;;;5034757;28;20197;-66
2023/07/08 02:00:43;;;;;;;5.80;4.47;;;21.30;70.60;;;;;;5036467;28;20406;-66
2023/07/08 02:03:11;;;;;;;5.72;4.63;;;21.30;71.70;;;;;;5032900;28;20182;-65
2023/07/08 02:05:36;;;;;;;5.93;4.50;;;21.20;71.60;;;;;;5043814;28;20194;-66
2023/07/08 02:08:02;;;;;;;6.38;4.82;;;21.20;71.30;;;;;;5031448;28;20208;-66
2023/07/08 02:10:30;;;;;;;6.07;4.70;;;21.10;71.50;;;;;;5033189;28;20209;-64
2023/07/08 02:12:56;;;;;;;5.93;4.30;;;21.10;71.80;;;;;;5040134;28;20231;-67
2023/07/08 02:15:26;;;;;;;6.95;4.50;;;21.10;72.20;;;;;;5039617;28;20173;-64
2023/07/08 02:17:52;;;;;;;7.43;4.75;;;21.00;73.00;;;;;;5040841;28;20188;-65
2023/07/08 02:20:18;;;;;;;7.60;5.07;;;21.00;72.40;;;;;;5050230;28;20205;-66
2023/07/08 02:22:44;;;;;;;7.13;4.97;;;21.00;72.50;;;;;;5048013;28;20208;-66
2023/07/08 02:25:09;;;;;;;6.18;4.78;;;20.90;72.60;;;;;;5037449;28;20177;-67
2023/07/08 02:27:36;;;;;;;6.75;4.90;;;20.90;72.90;;;;;;5037070;28;20213;-66
2023/07/08 02:30:01;;;;;;;7.22;4.68;;;20.90;73.20;;;;;;5033992;28;20201;-67
2023/07/08 02:32:28;;;;;;;8.95;4.63;;;20.90;73.50;;;;;;5037577;28;20161;-66
2023/07/08 02:34:53;;;;;;;6.32;4.88;;;20.80;73.60;;;;;;5039713;28;20201;-67
2023/07/08 02:37:19;;;;;;;6.32;4.72;;;20.80;73.80;;;;;;5037904;28;20213;-67
2023/07/08 02:39:47;;;;;;;6.78;4.88;;;20.80;74.00;;;;;;5055899;28;20443;-67
2023/07/08 02:42:12;;;;;;;8.27;5.05;;;20.70;74.30;;;;;;5043835;28;20213;-66
2023/07/08 02:44:40;;;;;;;5.45;4.38;;;20.70;74.60;;;;;;5038179;28;20222;-66
2023/07/08 02:47:08;;;;;;;5.35;4.28;;;20.70;74.80;;;;;;5054988;28;20181;-66
2023/07/08 02:49:34;;;;;;;7.45;4.93;;;20.60;75.70;;;;;;5053706;28;20193;-67
2023/07/08 02:51:59;;;;;;;5.53;4.25;;;20.60;75.40;;;;;;5037026;28;20181;-65
2023/07/08 02:54:27;;;;;;;7.68;4.65;;;20.60;75.80;;;;;;5051901;28;20256;-66
2023/07/08 02:56:54;;;;;;;6.75;4.95;;;20.50;76.10;;;;;;5051151;28;20213;-66
2023/07/08 02:59:22;;;;;;;6.57;4.95;;;20.50;76.60;;;;;;5038631;28;20263;-67
2023/07/08 03:01:50;;;;;;;6.22;4.78;;;20.50;77.50;;;;;;5053930;28;20200;-67
2023/07/08 03:04:21;;;;;;;9.77;4.90;;;20.40;77.30;;;;;;5040577;28;20177;-66
2023/07/08 03:06:51;;;;;;;5.85;4.80;;;20.40;78.20;;;;;;5040260;28;20200;-66
2023/07/08 03:09:19;;;;;;;7.68;4.75;;;20.30;78.60;;;;;;5039879;28;20184;-67
2023/07/08 03:11:47;;;;;;;7.60;4.40;;;20.30;78.80;;;;;;5031950;28;20189;-64
2023/07/08 03:14:12;;;;;;;7.60;5.18;;;20.30;79.10;;;;;;5023556;28;20193;-67
2023/07/08 03:16:38;;;;;;;6.70;4.80;;;20.30;79.00;;;;;;5040103;28;20189;-66
2023/07/08 03:19:05;;;;;;;6.60;5.00;;;20.30;79.40;;;;;;5040071;28;20553;-66
2023/07/08 03:21:33;;;;;;;6.18;4.85;;;20.30;79.70;;;;;;5039764;28;20212;-67
2023/07/08 03:23:59;;;;;;;6.03;4.40;;;20.20;80.00;;;;;;5039200;28;20177;-67
2023/07/08 03:26:26;;;;;;;7.15;4.60;;;20.20;80.20;;;;;;5036746;28;20231;-65
2023/07/08 03:28:56;;;;;;;6.25;4.72;;;20.20;81.10;;;;;;5039657;28;20182;-66
2023/07/08 03:31:22;;;;;;;9.13;5.28;;;20.20;81.00;;;;;;5038408;28;20201;-67
2023/07/08 03:33:47;;;;;;;6.30;4.82;;;20.20;81.50;;;;;;5037784;28;20208;-67
2023/07/08 03:36:23;;;;;;;7.47;5.15;;;20.20;81.80;;;;;;5037962;28;20204;-65
2023/07/08 03:38:53;;;;;;;7.57;4.78;;;20.20;82.70;;;;;;5034621;28;20256;-65
2023/07/08 03:41:19;;;;;;;7.32;4.75;;;20.10;82.90;;;;;;5038196;28;20196;-66
2023/07/08 03:43:50;;;;;;;6.50;4.82;;;20.10;82.50;;;;;;5029328;28;20173;-67
2023/07/08 03:46:20;;;;;;;5.80;4.43;;;20.10;82.70;;;;;;5034649;28;20233;-65
2023/07/08 03:48:49;;;;;;;8.20;4.88;;;20.10;83.20;;;;;;5036830;28;20193;-66
2023/07/08 03:51:22;;;;;;;7.13;4.55;;;20.10;83.50;;;;;;5036707;28;20300;-67
2023/07/08 03:53:51;;;;;;;6.63;4.80;;;20.10;85.00;;;;;;5036570;28;20204;-67
2023/07/08 03:56:17;;;;;;;7.65;4.55;;;20.10;84.10;;;;;;5037872;28;20238;-65
2023/07/08 03:58:42;;;;;;;6.05;4.43;;;20.10;84.00;;;;;;5037533;28;20178;-66
2023/07/08 04:01:25;;;;;;;7.63;4.97;;;20.20;84.20;;;;;;5052405;28;20210;-66
2023/07/08 04:03:59;;;;;;;5.53;4.32;;;20.20;85.70;;;;;;5049777;28;20444;-67
2023/07/08 04:06:25;;;;;;;7.35;4.53;;;20.20;85.00;;;;;;5035311;28;20232;-67
2023/07/08 04:08:56;;;;;;;6.35;4.45;;;20.20;84.50;;;;;;5030644;28;20185;-64
2023/07/08 04:11:23;;;;;;;7.47;4.70;;;20.20;84.80;;;;;;5033724;28;20201;-65
2023/07/08 04:13:52;;;;;;;5.90;4.38;;;20.30;85.00;;;;;;5037485;28;20227;-65
2023/07/08 04:16:29;;;;;;;6.43;4.57;;;20.30;85.00;;;;;;5038087;28;20181;-66
2023/07/08 04:18:55;;;;;;;6.35;4.65;;;20.30;86.10;;;;;;5033918;28;20201;-67
2023/07/08 04:21:25;;;;;;;7.32;4.60;;;20.30;85.40;;;;;;5037146;28;20209;-65
2023/07/08 04:23:53;;;;;;;6.40;4.25;;;20.30;85.60;;;;;;5036396;28;20187;-65
2023/07/08 04:26:24;;;;;;;5.78;4.60;;;20.30;85.50;;;;;;5035375;28;20223;-67
2023/07/08 04:28:50;;;;;;;5.70;4.45;;;20.40;85.80;;;;;;5034563;28;20173;-67
2023/07/08 04:31:16;;;;;;;6.75;4.53;;;20.40;85.60;;;;;;5054071;28;20205;-66
2023/07/08 04:33:44;;;;;;;7.25;4.55;;;20.40;85.50;;;;;;5036702;28;20290;-66
2023/07/08 04:36:14;;;;;;;5.93;4.63;;;20.40;85.90;;;;;;5035703;28;20174;-63
2023/07/08 04:38:41;;;;;;;5.85;4.53;;;20.40;85.80;;;;;;5053248;28;20277;-63
2023/07/08 04:41:07;;;;;;;7.45;4.78;;;20.40;85.60;;;;;;5035873;28;20185;-67
2023/07/08 04:43:33;;;;;;;5.50;4.28;;;20.40;85.70;;;;;;5050084;28;20308;-70
2023/07/08 04:46:03;;;;;;;6.13;4.38;;;20.40;85.90;;;;;;5037151;28;20229;-68
2023/07/08 04:48:32;;;;;;;5.93;4.68;;;20.50;86.10;;;;;;5051823;28;20212;-69
2023/07/08 04:51:03;;;;;;;6.90;4.55;;;20.50;86.20;;;;;;5032256;28;20229;-63
2023/07/08 04:53:30;;;;;;;6.38;4.63;;;20.50;86.80;;;;;;5035753;28;20362;-67
2023/07/08 04:55:56;;;;;;;6.10;4.43;;;20.50;86.70;;;;;;5047128;28;20177;-67
2023/07/08 04:58:24;;;;;;;6.57;4.97;;;20.50;86.70;;;;;;5036198;28;20193;-65
2023/07/08 05:00:53;;;;;;;6.10;4.68;;;20.60;87.20;;;;;;5050248;28;20200;-68
2023/07/08 05:03:18;;;;;;;6.32;4.90;;;20.60;87.30;;;;;;5019267;28;20225;-69
2023/07/08 05:05:49;;;;;;;5.65;4.53;;;20.60;88.00;;;;;;5035298;28;20197;-68
2023/07/08 05:08:17;;;;;;;6.03;4.65;;;20.60;87.50;;;;;;5051221;28;20178;-68
2023/07/08 05:10:42;;;;;;;6.03;4.40;;;20.70;88.10;;;;;;5037702;28;20247;-68
2023/07/08 05:13:10;;;;;;;7.40;4.82;;;20.70;88.20;;;;;;5054463;28;20177;-67
2023/07/08 05:15:38;;;;;;;9.18;5.00;;;20.80;88.20;;;;;;5050927;28;20235;-68
2023/07/08 05:18:04;;;;;;;6.55;4.50;;;20.90;88.70;;;;;;5037080;28;20209;-68
2023/07/08 05:20:30;;;;;;;6.97;4.30;;;21.00;88.50;;;;;;5037766;28;20181;-68
2023/07/08 05:22:56;;;;;;;9.32;6.20;;;21.00;88.30;;;;;;5034670;28;20188;-68
2023/07/08 05:25:24;;;;;;;7.93;5.38;;;21.10;88.20;;;;;;5035297;28;20181;-67
2023/07/08 05:27:52;;;;;;;7.47;5.38;;;21.20;88.00;;;;;;5021235;28;20188;-68
2023/07/08 05:30:20;;;;;;;6.38;4.63;;;21.30;88.10;;;;;;5019526;28;20209;-67
2023/07/08 05:32:46;;;;;;;6.50;4.65;;;21.30;88.10;;;;;;5035723;28;20213;-67
2023/07/08 05:35:11;;;;;;;6.45;4.97;;;21.40;88.10;;;;;;5050754;28;20206;-64
2023/07/08 05:37:39;;;;;;;6.47;4.78;;;21.50;88.30;;;;;;5036383;28;20439;-66
2023/07/08 05:40:06;;;;;;;7.78;5.00;;;21.60;88.70;;;;;;5048192;28;20273;-67
2023/07/08 05:42:32;;;;;;;10.80;7.78;;;21.70;88.90;;;;;;5031872;28;20181;-68
2023/07/08 05:44:58;;;;;;;9.15;5.97;;;21.70;88.90;;;;;;5032846;28;20240;-68
2023/07/08 05:47:24;;;;;;;7.05;5.40;;;21.80;89.00;;;;;;5048926;28;20193;-69
2023/07/08 05:49:52;;;;;;;7.25;5.10;;;22.00;89.30;;;;;;5035456;28;20229;-67
2023/07/08 05:52:17;;;;;;;6.75;5.00;;;22.00;89.30;;;;;;5033788;28;20276;-67
2023/07/08 05:54:43;;;;;;;6.53;4.63;;;22.20;89.10;;;;;;5035776;28;20233;-67
2023/07/08 05:57:10;;;;;;;6.15;4.68;;;22.20;88.80;;;;;;5036126;28;20204;-67
2023/07/08 05:59:38;;;;;;;8.32;5.68;;;22.30;88.80;;;;;;5036105;28;20185;-67
2023/07/08 06:02:06;;;;;;;6.95;4.65;;;22.40;88.80;;;;;;5032991;28;20240;-66
2023/07/08 06:04:32;;;;;;;6.63;4.78;;;22.40;88.60;;;;;;5038150;28;20273;-67
2023/07/08 06:06:58;;;;;;;6.50;4.40;;;22.50;88.50;;;;;;5032118;28;20250;-67
2023/07/08 06:09:24;;;;;;;7.82;5.15;;;22.50;88.20;;;;;;5053242;28;20188;-67
2023/07/08 06:11:49;;;;;;;7.68;4.78;;;22.60;88.00;;;;;;5053361;28;20197;-67
2023/07/08 06:14:17;;;;;;;6.07;4.30;;;22.60;87.90;;;;;;5036659;28;20182;-67
2023/07/08 06:16:43;;;;;;;5.57;4.63;;;22.70;87.90;;;;;;5037249;28;20233;-67
2023/07/08 06:19:09;;;;;;;6.80;4.93;;;22.70;87.70;;;;;;5033937;28;20478;-66
2023/07/08 06:21:35;;;;;;;8.32;4.93;;;22.70;87.70;;;;;;5017500;28;20184;-67
2023/07/08 06:24:00;;;;;;;5.25;4.47;;;22.80;87.70;;;;;;5042397;28;20369;-68
2023/07/08 06:26:26;;;;;;;5.72;4.28;;;22.90;87.30;;;;;;5053020;28;20276;-67
2023/07/08 06:28:52;;;;;;;7.63;4.50;;;22.90;87.90;;;;;;5037166;28;20207;-67
2023/07/08 06:31:22;;;;;;;6.90;4.97;;;23.00;87.30;;;;;;5036316;28;20205;-68
2023/07/08 06:33:47;;;;;;;5.38;4.25;;;23.00;87.20;;;;;;5024870;28;20185;-67
2023/07/08 06:36:13;;;;;;;6.25;4.57;;;23.10;87.20;;;;;;5036429;28;20173;-66
2023/07/08 06:38:39;;;;;;;5.63;4.20;;;23.20;86.90;;;;;;5042199;28;20226;-67
2023/07/08 06:41:04;;;;;;;5.60;4.45;;;23.30;87.30;;;;;;5036234;28;20257;-67
2023/07/08 06:43:30;;;;;;;7.15;4.43;;;23.30;86.40;;;;;;5036855;28;20181;-67
2023/07/08 06:45:57;;;;;;;6.47;4.00;;;23.40;86.30;;;;;;5036980;28;20223;-67
2023/07/08 06:48:24;;;;;;;5.70;4.13;;;23.50;86.30;;;;;;5030937;28;20185;-66
2023/07/08 06:50:52;;;;;;;5.60;4.28;;;23.60;86.10;;;;;;5033349;28;20213;-67
2023/07/08 06:53:17;;;;;;;4.75;3.65;;;23.60;86.00;;;;;;5033333;28;20202;-67
2023/07/08 06:55:46;;;;;;;4.85;4.07;;;23.60;85.60;;;;;;5033728;28;20174;-67
2023/07/08 06:58:12;;;;;;;6.53;5.28;;;23.70;86.10;;;;;;5040264;28;20193;-67
2023/07/08 07:00:40;;;;;;;7.28;4.60;;;23.70;85.40;;;;;;5027541;28;20181;-68
2023/07/08 07:03:06;;;;;;;6.22;4.30;;;23.80;85.10;;;;;;5040854;28;20231;-67
2023/07/08 07:05:34;;;;;;;4.35;3.92;;;23.90;85.10;;;;;;5040688;28;20205;-67
2023/07/08 07:08:02;;;;;;;4.82;3.97;;;23.90;85.00;;;;;;5039999;28;20173;-67
2023/07/08 07:10:30;;;;;;;5.53;4.20;;;24.00;85.10;;;;;;5057019;28;20205;-68
2023/07/08 07:12:59;;;;;;;4.20;3.63;;;24.10;85.20;;;;;;5056740;28;20291;-68
2023/07/08 07:15:24;;;;;;;4.65;3.58;;;24.20;85.10;;;;;;5053329;28;20178;-68
2023/07/08 07:17:53;;;;;;;8.75;4.40;;;24.30;85.40;;;;;;5036829;28;20178;-67
2023/07/08 07:20:19;;;;;;;6.60;4.43;;;24.40;85.40;;;;;;5036949;28;20193;-68
2023/07/08 07:22:45;;;;;;;5.30;4.32;;;24.50;85.00;;;;;;5036782;28;20243;-68
2023/07/08 07:25:10;;;;;;;7.72;4.70;;;24.60;84.90;;;;;;5036666;28;20209;-68
2023/07/08 07:27:38;;;;;;;5.28;4.32;;;24.70;84.70;;;;;;5036530;28;20205;-67
2023/07/08 07:30:12;;;;;;;5.25;3.92;;;24.80;84.50;;;;;;5039198;28;20285;-68
2023/07/08 07:32:38;;;;;;;5.10;3.92;;;24.90;84.00;;;;;;5038893;28;20204;-66
2023/07/08 07:35:04;;;;;;;5.35;4.18;;;24.90;83.00;;;;;;5048390;28;20170;-66
2023/07/08 07:37:32;;;;;;;6.75;4.72;;;25.00;82.90;;;;;;5034309;28;20169;-67
2023/07/08 07:39:58;;;;;;;5.57;4.15;;;25.10;82.20;;;;;;5034261;28;20228;-66
2023/07/08 07:42:26;;;;;;;5.85;4.38;;;25.20;81.70;;;;;;5042947;28;20169;-66
2023/07/08 07:44:52;;;;;;;5.82;4.25;;;25.30;81.30;;;;;;5038598;28;20180;-66
2023/07/08 07:47:17;;;;;;;4.78;3.67;;;25.40;81.00;;;;;;5054039;28;20201;-65
2023/07/08 07:49:43;;;;;;;5.10;3.80;;;25.50;80.50;;;;;;5051413;28;20196;-66
2023/07/08 07:52:10;;;;;;;5.82;3.65;;;25.60;80.20;;;;;;5035933;28;20173;-67
2023/07/08 07:54:37;;;;;;;4.50;3.75;;;25.70;80.00;;;;;;5038560;28;20277;-67
2023/07/08 07:57:03;;;;;;;4.80;3.90;;;25.70;79.70;;;;;;5037283;28;20173;-67
2023/07/08 07:59:28;;;;;;;4.25;3.67;;;25.80;79.00;;;;;;5037655;28;20181;-66
2023/07/08 08:01:54;;;;;;;5.95;3.83;;;25.90;78.60;;;;;;5036574;28;20170;-67
2023/07/08 08:04:20;;;;;;;5.68;3.80;;;26.00;77.80;;;;;;5053947;28;20196;-66
2023/07/08 08:06:47;;;;;;;5.30;4.20;;;26.10;77.40;;;;;;5049095;28;20267;-68
2023/07/08 08:09:13;;;;;;;4.47;3.70;;;26.20;76.00;;;;;;5044805;28;20217;-67
2023/07/08 08:11:39;;;;;;;4.68;3.83;;;26.20;75.50;;;;;;5035167;28;20217;-67
2023/07/08 08:14:05;;;;;;;5.38;4.10;;;26.40;75.90;;;;;;5020392;28;20202;-68
2023/07/08 08:16:33;;;;;;;4.93;4.07;;;26.40;74.20;;;;;;5036622;28;20181;-67
2023/07/08 08:19:00;;;;;;;5.00;3.65;;;26.50;72.80;;;;;;5052126;28;20173;-67
2023/07/08 08:21:26;;;;;;;6.28;3.83;;;26.60;73.50;;;;;;5051787;28;20486;-67
2023/07/08 08:23:54;;;;;;;6.00;4.28;;;26.70;73.30;;;;;;5052404;28;20177;-67
2023/07/08 08:26:20;;;;;;;4.75;3.88;;;26.80;73.20;;;;;;5042893;28;20201;-67
2023/07/08 08:28:45;;;;;;;4.43;3.60;;;26.90;73.40;;;;;;5037110;28;20185;-67
2023/07/08 08:31:11;;;;;;;5.03;4.03;;;27.00;73.40;;;;;;5036977;28;20189;-68
2023/07/08 08:33:39;;;;;;;4.97;3.60;;;27.10;72.30;;;;;;5036820;28;20217;-67
2023/07/08 08:36:04;;;;;;;5.63;3.65;;;27.20;71.60;;;;;;5051792;28;20177;-67
2023/07/08 08:38:32;;;;;;;4.65;3.88;;;27.30;71.80;;;;;;5035689;28;20184;-68
2023/07/08 08:40:58;;;;;;;5.55;3.67;;;27.40;72.00;;;;;;5049822;28;20209;-67
2023/07/08 08:43:39;;;;;;;7.53;3.92;;;27.50;70.80;;;;;;5033303;28;20197;-67
2023/07/08 08:46:07;;;;;;;4.63;3.58;;;27.60;70.00;;;;;;5035699;28;20200;-66
2023/07/08 08:48:41;;;;;;;5.25;4.05;;;27.70;70.20;;;;;;5042077;28;20177;-67
2023/07/08 08:51:14;;;;;;;5.18;3.47;;;27.80;69.10;;;;;;5036847;28;20274;-67
2023/07/08 08:53:42;;;;;;;4.40;3.40;;;27.90;68.80;;;;;;5036035;28;20188;-68
2023/07/08 08:56:24;;;;;;;4.57;3.42;;;28.10;69.80;;;;;;5036109;28;20263;-67
2023/07/08 08:59:09;;;;;;;4.53;3.38;;;28.20;68.70;;;;;;5034810;28;20506;-67
2023/07/08 09:01:39;;;;;;;6.72;3.55;;;28.30;69.70;;;;;;5026981;28;20169;-68
2023/07/08 09:04:32;;;;;;;5.07;3.58;;;28.40;68.90;;;;;;5037637;28;20173;-67
2023/07/08 09:07:08;;;;;;;5.22;3.30;;;28.60;67.60;;;;;;5028093;28;20201;-65
2023/07/08 09:09:45;;;;;;;5.07;3.45;;;28.70;67.60;;;;;;5047108;28;20181;-66
2023/07/08 09:12:18;;;;;;;5.20;3.63;;;28.80;66.70;;;;;;5018115;28;20223;-66
2023/07/08 09:14:50;;;;;;;4.13;3.53;;;28.90;65.70;;;;;;5031296;28;20504;-67
2023/07/08 09:17:34;;;;;;;5.72;3.65;;;29.00;65.60;;;;;;5029933;28;20176;-66
2023/07/08 09:20:16;;;;;;;4.22;3.22;;;29.10;64.80;;;;;;5034114;28;20182;-67
2023/07/08 09:22:57;;;;;;;4.35;3.35;;;29.20;64.90;;;;;;5023514;28;20196;-67
2023/07/08 09:25:36;;;;;;;5.75;3.67;;;29.40;62.90;;;;;;5037035;28;20200;-67
2023/07/08 09:28:04;;;;;;;6.53;3.25;;;29.40;63.00;;;;;;5048091;28;20177;-66
2023/07/08 09:30:32;;;;;;;6.82;3.42;;;29.60;65.10;;;;;;5026050;28;20200;-67
2023/07/08 09:33:07;;;;;;;5.18;3.65;;;29.60;65.10;;;;;;5034974;28;20185;-66
2023/07/08 09:35:46;;;;;;;5.05;3.90;;;29.70;64.10;;;;;;5035943;28;20187;-68
2023/07/08 09:38:20;;;;;;;6.07;3.67;;;29.90;63.00;;;;;;5036912;28;20192;-66
2023/07/08 09:40:56;;;;;;;5.05;3.50;;;30.00;63.20;;;;;;5050153;28;20181;-67
2023/07/08 09:43:37;;;;;;;4.38;3.22;;;30.00;62.70;;;;;;5029935;28;20459;-67
2023/07/08 09:46:03;;;;;;;4.97;3.55;;;30.10;63.00;;;;;;5051647;28;20284;-67
2023/07/08 09:48:36;;;;;;;5.30;3.63;;;30.20;62.80;;;;;;5046701;28;20428;-66
2023/07/08 09:51:03;;;;;;;4.75;3.70;;;30.30;62.80;;;;;;5032968;28;20192;-67
2023/07/08 09:53:28;;;;;;;4.60;3.70;;;30.40;63.20;;;;;;5050624;28;20177;-66
2023/07/08 09:55:58;;;;;;;5.18;3.63;;;30.40;62.70;;;;;;5035139;28;20183;-66
2023/07/08 09:58:34;;;;;;;5.85;3.97;;;30.50;62.00;;;;;;5034545;28;20173;-66
2023/07/08 10:01:08;;;;;;;4.53;3.33;;;30.60;61.00;;;;;;5026593;28;20172;-66
2023/07/08 10:03:37;;;;;;;4.50;3.60;;;30.70;61.90;;;;;;5047606;28;20199;-66
2023/07/08 10:06:16;;;;;;;3.92;3.13;;;30.80;61.80;;;;;;5035115;28;20187;-66
2023/07/08 10:08:45;;;;;;;4.80;3.53;;;30.90;62.60;;;;;;5033118;28;20177;-66
2023/07/08 10:11:22;;;;;;;3.78;3.17;;;31.00;61.70;;;;;;5051533;28;20215;-67
2023/07/08 10:13:54;;;;;;;4.07;3.08;;;31.00;61.70;;;;;;5028033;28;20168;-66
2023/07/08 10:16:29;;;;;;;4.78;3.83;;;31.20;61.20;;;;;;5052199;28;20196;-67
2023/07/08 10:18:58;;;;;;;4.75;3.38;;;31.20;60.80;;;;;;5047576;28;20221;-67
2023/07/08 10:21:42;;;;;;;4.47;3.25;;;31.30;61.10;;;;;;5050176;28;20180;-66
2023/07/08 10:24:26;;;;;;;5.85;3.60;;;31.40;60.10;;;;;;5043596;28;20482;-67
2023/07/08 10:27:11;;;;;;;5.05;3.67;;;31.50;60.90;;;;;;5035488;28;21508;-67
2023/07/08 10:30:17;;;;;;;5.03;3.72;;;31.60;59.70;;;;;;5026009;28;20212;-67
2023/07/08 10:32:53;;;;;;;4.50;3.38;;;31.70;59.30;;;;;;4998854;28;20208;-66
2023/07/08 10:35:33;;;;;;;6.15;3.70;;;31.80;59.50;;;;;;5053622;28;20172;-68
2023/07/08 10:38:01;;;;;;;4.85;3.72;;;31.90;58.70;;;;;;5037419;28;20210;-67
2023/07/08 10:40:48;;;;;;;5.00;3.70;;;31.90;59.10;;;;;;5055895;28;20184;-66
2023/07/08 10:43:51;;;;;;;6.40;3.90;;;32.10;59.10;;;;;;5051562;28;20478;-67
2023/07/08 10:46:20;;;;;;;4.57;3.72;;;32.30;58.10;;;;;;5006549;28;20258;-67
2023/07/08 10:49:04;;;;;;;4.38;3.78;;;32.50;59.40;;;;;;5038057;28;20208;-67
2023/07/08 10:51:48;;;;;;;5.03;3.85;;;32.80;57.70;;;;;;5054310;28;20768;-67
2023/07/08 10:54:26;;;;;;;5.20;3.80;;;33.10;57.60;;;;;;5035863;28;20214;-67
2023/07/08 10:57:00;;;;;;;5.45;3.60;;;33.20;56.10;;;;;;5037836;28;20187;-67
2023/07/08 10:59:57;;;;;;;5.15;3.55;;;33.40;57.40;;;;;;5051909;28;20176;-67
2023/07/08 11:02:31;;;;;;;4.28;3.20;;;33.70;57.20;;;;;;5029273;28;20277;-68
2023/07/08 11:05:05;;;;;;;5.90;3.38;;;33.90;57.20;;;;;;5040425;28;20199;-66
2023/07/08 11:07:46;;;;;;;4.72;3.58;;;34.10;57.20;;;;;;5040151;28;20208;-67
2023/07/08 11:10:35;;;;;;;4.57;3.50;;;34.30;56.00;;;;;;5038637;28;20271;-66
2023/07/08 11:13:11;;;;;;;4.15;3.47;;;34.50;56.00;;;;;;5038713;28;20273;-66
2023/07/08 11:15:52;;;;;;;5.07;3.47;;;34.70;55.40;;;;;;5055608;28;20218;-68
2023/07/08 11:18:45;;;;;;;4.28;3.33;;;34.80;54.80;;;;;;5039899;28;20194;-67
2023/07/08 11:21:14;;;;;;;5.95;3.38;;;34.90;53.20;;;;;;5036207;28;20344;-68
2023/07/08 11:23:52;;;;;;;5.75;3.67;;;35.00;54.60;;;;;;5039215;28;20181;-67
2023/07/08 11:26:25;;;;;;;7.28;3.55;;;35.10;53.40;;;;;;5052175;28;20279;-66
2023/07/08 11:28:56;;;;;;;3.80;3.38;;;35.20;53.90;;;;;;5039647;28;20177;-67
2023/07/08 11:31:24;;;;;;;4.70;3.58;;;35.30;53.70;;;;;;5033850;28;20319;-66
2023/07/08 11:33:54;;;;;;;5.05;3.75;;;35.40;53.20;;;;;;5038741;28;20196;-67
2023/07/08 11:36:22;;;;;;;4.70;3.58;;;35.50;52.90;;;;;;5039003;28;20181;-67
2023/07/08 11:38:50;;;;;;;4.22;3.35;;;35.50;52.50;;;;;;5038251;28;20173;-66
2023/07/08 11:41:20;;;;;;;4.10;3.58;;;35.70;52.50;;;;;;5054573;28;20262;-67
2023/07/08 11:43:56;;;;;;;8.57;3.25;;;35.70;52.10;;;;;;5036974;28;20180;-66
2023/07/08 11:46:32;;;;;;;6.38;3.58;;;35.80;51.50;;;;;;5026885;28;20244;-67
2023/07/08 11:49:14;;;;;;;4.72;3.53;;;35.90;51.10;;;;;;5038009;28;20203;-66
2023/07/08 11:51:44;;;;;;;4.18;3.28;;;36.00;50.90;;;;;;5036580;28;20276;-67
2023/07/08 11:54:10;;;;;;;5.63;3.78;;;36.00;51.20;;;;;;5037598;28;20195;-67
2023/07/08 11:56:59;;;;;;;5.80;3.15;;;36.20;51.00;;;;;;5037595;28;20173;-68
2023/07/08 11:59:28;;;;;;;4.80;3.20;;;36.30;48.80;;;;;;5034082;28;20201;-67
2023/07/08 12:02:03;;;;;;;5.03;3.67;;;36.40;49.80;;;;;;5037454;28;20210;-68
2023/07/08 12:04:35;;;;;;;4.68;3.63;;;36.40;48.70;;;;;;5035222;28;20199;-67
2023/07/08 12:07:23;;;;;;;5.05;3.50;;;36.40;49.10;;;;;;5044575;28;20202;-67
2023/07/08 12:10:02;;;;;;;5.05;3.38;;;36.50;49.10;;;;;;5028931;28;20177;-67
2023/07/08 12:12:34;;;;;;;4.50;3.03;;;36.60;48.50;;;;;;5033587;28;20200;-68
2023/07/08 12:15:22;;;;;;;4.75;3.50;;;36.60;48.00;;;;;;5035250;28;20185;-68
2023/07/08 12:17:50;;;;;;;4.60;3.25;;;36.70;48.00;;;;;;5038208;28;20180;-67
2023/07/08 12:20:26;;;;;;;6.15;3.30;;;36.70;48.80;;;;;;5038652;28;20205;-67
2023/07/08 12:22:52;;;;;;;4.57;3.22;;;36.80;47.80;;;;;;5038908;28;20176;-67
2023/07/08 12:25:26;;;;;;;4.82;3.63;;;36.90;48.70;;;;;;5036624;28;20207;-67
2023/07/08 12:27:52;;;;;;;4.25;3.67;;;37.00;47.80;;;;;;5044559;28;20381;-67
2023/07/08 12:30:20;;;;;;;3.33;3.00;;;37.10;47.80;;;;;;5053036;28;20292;-68
2023/07/08 12:32:48;;;;;;;3.50;3.17;;;37.20;47.70;;;;;;5044147;28;20192;-67
2023/07/08 12:35:29;;;;;;;4.47;3.40;;;37.40;47.20;;;;;;5037999;28;20187;-67
2023/07/08 12:37:59;;;;;;;5.85;3.20;;;37.50;46.30;;;;;;5038352;28;20177;-67
2023/07/08 12:40:27;;;;;;;3.35;3.00;;;37.50;46.60;;;;;;5036549;28;20208;-67
2023/07/08 12:42:53;;;;;;;3.88;3.00;;;37.60;47.00;;;;;;5029728;28;20302;-67
2023/07/08 12:45:25;;;;;;;4.65;3.10;;;37.70;46.90;;;;;;5052075;28;20267;-67
2023/07/08 12:47:53;;;;;;;5.28;3.47;;;37.80;46.40;;;;;;5033276;28;20201;-67
2023/07/08 12:50:21;;;;;;;4.25;3.17;;;37.90;45.80;;;;;;5034379;28;20216;-67
2023/07/08 12:52:47;;;;;;;3.95;3.25;;;37.90;45.60;;;;;;5036046;28;20187;-68
2023/07/08 12:55:16;;;;;;;4.85;3.30;;;38.00;45.50;;;;;;5050756;28;20177;-69
2023/07/08 12:57:45;;;;;;;4.78;3.40;;;38.00;45.50;;;;;;5037324;28;20180;-67
2023/07/08 13:00:26;;;;;;;3.75;3.20;;;38.10;45.70;;;;;;5052909;28;20205;-67
2023/07/08 13:03:18;;;;;;;5.07;3.58;;;38.00;44.80;;;;;;5034049;28;20181;-67
2023/07/08 13:05:44;;;;;;;4.15;3.35;;;38.10;44.20;;;;;;5045873;28;20234;-68